createdAt,value
2018-08-31T00:00:13.972Z,6.07
2018-08-31T00:02:45.308Z,4.27
2018-08-31T00:05:50.147Z,7.67
2018-08-31T00:10:39.732Z,4.97
2018-08-31T00:13:07.796Z,4.70
2018-08-31T00:15:34.902Z,11.00
2018-08-31T00:18:02.076Z,6.27
2018-08-31T00:20:29.180Z,8.00
2018-08-31T00:22:56.266Z,5.33
2018-08-31T00:26:06.044Z,7.23
2018-08-31T00:28:45.178Z,5.77
2018-08-31T00:31:49.913Z,5.13
2018-08-31T00:34:29.854Z,9.07
2018-08-31T00:37:15.288Z,4.83
2018-08-31T00:39:53.808Z,8.50
2018-08-31T00:42:38.884Z,5.77
2018-08-31T00:45:29.392Z,8.40
2018-08-31T00:47:57.396Z,6.47
2018-08-31T00:50:24.575Z,6.90
2018-08-31T00:52:51.683Z,6.37
2018-08-31T00:55:18.803Z,4.97
2018-08-31T00:57:45.885Z,7.10
2018-08-31T01:00:13.036Z,5.97
2018-08-31T01:02:40.120Z,6.73
2018-08-31T01:05:07.216Z,5.10
2018-08-31T01:07:34.308Z,5.73
2018-08-31T01:10:01.451Z,5.23
2018-08-31T01:12:28.624Z,7.60
2018-08-31T01:14:55.752Z,5.67
2018-08-31T01:17:22.881Z,5.03
2018-08-31T01:19:50.004Z,6.13
2018-08-31T01:22:17.156Z,5.60
2018-08-31T01:24:44.277Z,4.77
2018-08-31T01:27:11.431Z,7.83
2018-08-31T01:29:38.556Z,6.70
2018-08-31T01:32:05.708Z,7.30
2018-08-31T01:34:32.872Z,10.03
2018-08-31T01:37:00.029Z,6.37
2018-08-31T01:39:27.240Z,4.30
2018-08-31T01:41:54.372Z,6.03
2018-08-31T01:44:21.552Z,6.07
2018-08-31T01:46:48.672Z,6.40
2018-08-31T01:49:15.781Z,7.67
2018-08-31T01:51:42.944Z,4.43
2018-08-31T01:54:10.269Z,7.53
2018-08-31T01:56:37.409Z,7.20
2018-08-31T01:59:04.571Z,5.63
2018-08-31T02:01:31.704Z,7.00
2018-08-31T02:04:01.047Z,6.37
2018-08-31T02:06:28.146Z,6.57
2018-08-31T02:09:00.856Z,7.67
2018-08-31T02:11:27.980Z,9.17
2018-08-31T02:13:55.103Z,4.97
2018-08-31T02:16:22.224Z,6.60
2018-08-31T02:18:49.376Z,7.40
2018-08-31T02:21:16.497Z,8.90
2018-08-31T02:23:43.656Z,9.83
2018-08-31T02:26:10.773Z,7.53
2018-08-31T02:28:37.891Z,8.07
2018-08-31T02:31:05.040Z,6.67
2018-08-31T02:33:32.146Z,7.70
2018-08-31T02:35:59.305Z,7.43
2018-08-31T02:38:26.432Z,7.10
2018-08-31T02:40:53.537Z,6.17
2018-08-31T02:43:20.684Z,6.13
2018-08-31T02:45:47.796Z,8.10
2018-08-31T02:48:14.952Z,6.37
2018-08-31T02:50:42.079Z,9.57
2018-08-31T02:53:09.193Z,7.53
2018-08-31T02:55:36.321Z,5.07
2018-08-31T02:58:03.468Z,6.67
2018-08-31T03:00:30.589Z,6.63
2018-08-31T03:02:57.732Z,5.20
2018-08-31T03:05:24.845Z,7.13
2018-08-31T03:07:51.985Z,6.50
2018-08-31T03:10:19.113Z,7.60
2018-08-31T03:12:46.244Z,7.17
2018-08-31T03:15:13.372Z,7.83
2018-08-31T03:17:40.482Z,7.77
2018-08-31T03:20:07.611Z,5.73
2018-08-31T03:22:34.718Z,5.50
2018-08-31T03:25:01.824Z,7.73
2018-08-31T03:27:28.980Z,7.10
2018-08-31T03:29:56.098Z,8.10
2018-08-31T03:32:23.227Z,9.43
2018-08-31T03:34:50.457Z,5.37
2018-08-31T03:37:17.596Z,6.27
2018-08-31T03:39:44.694Z,8.80
2018-08-31T03:42:11.828Z,7.80
2018-08-31T03:44:38.932Z,6.03
2018-08-31T03:47:06.048Z,7.53
2018-08-31T03:49:33.197Z,7.80
2018-08-31T03:52:00.299Z,5.80
2018-08-31T03:54:27.430Z,7.53
2018-08-31T03:56:54.561Z,5.30
2018-08-31T03:59:21.690Z,4.30
2018-08-31T04:01:48.796Z,5.70
2018-08-31T04:04:15.929Z,5.50
2018-08-31T04:06:43.060Z,6.13
2018-08-31T04:09:10.220Z,4.97
2018-08-31T04:11:37.311Z,8.57
2018-08-31T04:14:04.581Z,5.37
2018-08-31T04:16:31.673Z,7.13
2018-08-31T04:19:03.403Z,11.50
2018-08-31T04:21:30.678Z,4.07
2018-08-31T04:23:57.805Z,7.93
2018-08-31T04:26:24.924Z,6.00
2018-08-31T04:28:52.064Z,4.00
2018-08-31T04:31:19.196Z,7.60
2018-08-31T04:33:46.304Z,5.03
2018-08-31T04:36:13.451Z,7.43
2018-08-31T04:38:40.592Z,5.47
2018-08-31T04:41:07.764Z,6.63
2018-08-31T04:43:34.863Z,7.30
2018-08-31T04:46:01.965Z,7.10
2018-08-31T04:48:29.118Z,7.97
2018-08-31T04:50:56.244Z,8.37
2018-08-31T04:53:23.385Z,7.17
2018-08-31T04:55:50.504Z,5.80
2018-08-31T04:58:17.624Z,6.37
2018-08-31T05:00:44.756Z,6.70
2018-08-31T05:03:11.908Z,7.20
2018-08-31T05:05:39.064Z,4.93
2018-08-31T05:08:06.199Z,6.00
2018-08-31T05:10:33.390Z,6.70
2018-08-31T05:13:00.528Z,6.87
2018-08-31T05:15:27.649Z,6.83
2018-08-31T05:17:54.772Z,7.03
2018-08-31T05:20:21.917Z,7.67
2018-08-31T05:22:49.101Z,6.43
2018-08-31T05:25:16.212Z,7.90
2018-08-31T05:27:43.356Z,6.07
2018-08-31T05:30:13.330Z,7.53
2018-08-31T05:32:40.561Z,7.03
2018-08-31T05:35:07.785Z,7.03
2018-08-31T05:37:34.930Z,8.37
2018-08-31T05:40:02.095Z,6.83
2018-08-31T05:42:29.216Z,9.67
2018-08-31T05:44:56.364Z,6.33
2018-08-31T05:47:23.561Z,7.47
2018-08-31T05:49:50.689Z,9.10
2018-08-31T05:52:17.820Z,10.17
2018-08-31T05:54:44.944Z,8.20
2018-08-31T05:57:12.072Z,7.00
2018-08-31T05:59:39.188Z,9.93
2018-08-31T06:02:06.397Z,9.90
2018-08-31T06:04:33.512Z,10.33
2018-08-31T06:07:00.660Z,7.53
2018-08-31T06:09:27.796Z,12.37
2018-08-31T06:11:54.995Z,11.27
2018-08-31T06:14:22.101Z,8.93
2018-08-31T06:16:49.238Z,8.43
2018-08-31T06:19:16.369Z,7.47
2018-08-31T06:21:43.537Z,9.83
2018-08-31T06:24:10.718Z,10.33
2018-08-31T06:26:37.904Z,10.23
2018-08-31T06:29:05.051Z,8.17
2018-08-31T06:31:32.159Z,9.33
2018-08-31T06:33:59.318Z,10.77
2018-08-31T06:36:26.416Z,8.17
2018-08-31T06:38:53.565Z,6.53
2018-08-31T06:41:20.812Z,10.60
2018-08-31T06:43:47.936Z,12.73
2018-08-31T06:46:15.056Z,9.60
2018-08-31T06:48:42.203Z,11.50
2018-08-31T06:51:09.320Z,12.03
2018-08-31T06:53:36.452Z,9.10
2018-08-31T06:56:03.622Z,10.50
2018-08-31T06:58:30.765Z,10.97
2018-08-31T07:00:57.945Z,10.50
2018-08-31T07:03:25.099Z,10.97
2018-08-31T07:05:52.211Z,8.87
2018-08-31T07:08:19.320Z,7.20
2018-08-31T07:10:46.456Z,12.93
2018-08-31T07:13:13.602Z,10.33
2018-08-31T07:15:40.749Z,8.90
2018-08-31T07:18:07.876Z,7.40
2018-08-31T07:20:35.000Z,10.47
2018-08-31T07:23:02.169Z,9.03
2018-08-31T07:25:29.337Z,8.27
2018-08-31T07:27:56.468Z,10.47
2018-08-31T07:30:23.625Z,9.03
2018-08-31T07:32:50.764Z,10.07
2018-08-31T07:35:17.884Z,9.70
2018-08-31T07:37:45.021Z,7.90
2018-08-31T07:40:12.250Z,10.83
2018-08-31T07:42:39.384Z,9.17
2018-08-31T07:45:06.565Z,10.07
2018-08-31T07:47:33.720Z,7.57
2018-08-31T07:50:00.850Z,9.77
2018-08-31T07:52:27.980Z,6.33
2018-08-31T07:54:55.158Z,9.33
2018-08-31T07:57:22.296Z,6.33
2018-08-31T07:59:49.413Z,7.43
2018-08-31T08:02:16.544Z,8.40
2018-08-31T08:04:43.678Z,6.33
2018-08-31T08:07:10.841Z,5.80
2018-08-31T08:09:37.973Z,8.90
2018-08-31T08:12:05.180Z,8.50
2018-08-31T08:14:32.361Z,5.33
2018-08-31T08:16:59.488Z,5.23
2018-08-31T08:19:26.632Z,7.70
2018-08-31T08:21:53.764Z,5.67
2018-08-31T08:24:20.977Z,7.33
2018-08-31T08:26:48.122Z,6.50
2018-08-31T08:29:15.224Z,6.00
2018-08-31T08:31:42.347Z,5.57
2018-08-31T08:34:09.448Z,4.00
2018-08-31T08:36:36.588Z,2.67
2018-08-31T08:39:05.974Z,3.87
2018-08-31T08:41:33.120Z,4.17
2018-08-31T08:44:00.272Z,7.13
2018-08-31T08:46:27.396Z,3.77
2018-08-31T08:48:54.561Z,4.43
2018-08-31T08:51:21.757Z,4.90
2018-08-31T08:53:48.908Z,5.67
2018-08-31T08:56:16.055Z,5.83
2018-08-31T08:58:43.175Z,3.93
2018-08-31T09:01:10.296Z,4.60
2018-08-31T09:03:37.396Z,4.40
2018-08-31T09:06:04.528Z,5.83
2018-08-31T09:08:31.628Z,4.00
2018-08-31T09:10:58.741Z,3.93
2018-08-31T09:13:25.871Z,4.43
2018-08-31T09:15:53.012Z,6.10
2018-08-31T09:18:24.020Z,5.80
2018-08-31T09:20:51.066Z,5.37
2018-08-31T09:23:18.213Z,4.53
2018-08-31T09:25:45.456Z,5.97
2018-08-31T09:28:12.625Z,5.43
2018-08-31T09:30:41.276Z,3.37
2018-08-31T09:33:08.389Z,7.83
2018-08-31T09:35:35.529Z,5.53
2018-08-31T09:38:02.683Z,7.73
2018-08-31T09:40:29.824Z,3.20
2018-08-31T09:42:57.005Z,6.07
2018-08-31T09:45:24.136Z,4.63
2018-08-31T09:47:51.300Z,3.47
2018-08-31T09:50:18.440Z,1.80
2018-08-31T09:52:45.553Z,3.90
2018-08-31T09:55:12.689Z,3.63
2018-08-31T09:57:39.844Z,5.07
2018-08-31T10:00:07.008Z,6.70
2018-08-31T10:02:36.996Z,4.83
2018-08-31T10:05:05.098Z,5.70
2018-08-31T10:07:32.262Z,4.30
2018-08-31T10:09:59.396Z,5.43
2018-08-31T10:12:26.540Z,4.00
2018-08-31T10:14:53.677Z,4.70
2018-08-31T10:17:20.780Z,4.20
2018-08-31T10:19:47.901Z,2.83
2018-08-31T10:22:15.039Z,6.30
2018-08-31T10:24:42.172Z,5.73
2018-08-31T10:27:09.704Z,6.03
2018-08-31T10:29:36.857Z,5.13
2018-08-31T10:32:04.005Z,6.43
2018-08-31T10:34:31.152Z,4.13
2018-08-31T10:36:58.376Z,4.90
2018-08-31T10:39:25.533Z,4.43
2018-08-31T10:41:52.677Z,3.53
2018-08-31T10:44:19.824Z,4.63
2018-08-31T10:46:46.941Z,2.87
2018-08-31T10:49:14.104Z,3.60
2018-08-31T10:51:41.272Z,4.63
2018-08-31T10:54:08.413Z,4.57
2018-08-31T10:56:35.559Z,3.77
2018-08-31T10:59:02.716Z,3.93
2018-08-31T11:01:29.839Z,4.87
2018-08-31T11:03:57.066Z,5.60
2018-08-31T11:06:24.325Z,3.97
2018-08-31T11:08:51.457Z,5.53
2018-08-31T11:11:18.630Z,5.33
2018-08-31T11:13:45.814Z,3.33
2018-08-31T11:16:12.952Z,4.10
2018-08-31T11:18:40.129Z,4.13
2018-08-31T11:21:07.224Z,5.73
2018-08-31T11:23:34.456Z,4.43
2018-08-31T11:26:01.616Z,7.33
2018-08-31T11:28:28.754Z,5.80
2018-08-31T11:30:55.908Z,4.27
2018-08-31T11:33:23.073Z,4.93
2018-08-31T11:35:50.220Z,5.87
2018-08-31T11:38:17.381Z,4.50
2018-08-31T11:40:44.582Z,4.53
2018-08-31T11:43:11.784Z,6.63
2018-08-31T11:45:38.896Z,4.43
2018-08-31T11:48:06.036Z,2.50
2018-08-31T11:50:33.232Z,4.47
2018-08-31T11:53:00.345Z,4.83
2018-08-31T11:55:27.473Z,3.30
2018-08-31T11:57:54.617Z,3.30
2018-08-31T12:00:21.788Z,3.83
2018-08-31T12:02:48.890Z,3.33
2018-08-31T12:05:16.010Z,4.57
2018-08-31T12:07:43.179Z,4.90
2018-08-31T12:10:10.269Z,3.90
2018-08-31T12:12:37.421Z,4.57
2018-08-31T12:15:04.637Z,6.33
2018-08-31T12:17:32.005Z,3.57
2018-08-31T12:19:59.145Z,6.83
2018-08-31T12:22:26.250Z,4.23
2018-08-31T12:24:53.412Z,3.30
2018-08-31T12:27:20.584Z,5.00
2018-08-31T12:29:47.721Z,4.47
2018-08-31T12:32:14.868Z,6.10
2018-08-31T12:34:42.004Z,5.00
2018-08-31T12:37:09.117Z,4.57
2018-08-31T12:39:36.280Z,3.63
2018-08-31T12:42:03.396Z,2.60
2018-08-31T12:44:30.489Z,4.67
2018-08-31T12:46:57.603Z,3.73
2018-08-31T12:49:24.744Z,5.30
2018-08-31T12:51:51.870Z,4.33
2018-08-31T12:54:18.971Z,5.37
2018-08-31T12:56:46.092Z,3.43
2018-08-31T12:59:13.252Z,3.50
2018-08-31T13:01:40.374Z,4.33
2018-08-31T13:04:07.486Z,4.07
2018-08-31T13:06:34.580Z,3.87
2018-08-31T13:09:01.741Z,4.80
2018-08-31T13:11:28.848Z,4.90
2018-08-31T13:13:55.960Z,4.57
2018-08-31T13:16:23.131Z,4.50
2018-08-31T13:18:50.277Z,3.30
2018-08-31T13:21:17.404Z,3.53
2018-08-31T13:23:44.513Z,8.53
2018-08-31T13:26:11.668Z,5.57
2018-08-31T13:28:38.772Z,4.60
2018-08-31T13:31:05.924Z,3.73
2018-08-31T13:33:33.004Z,4.87
2018-08-31T13:36:00.113Z,3.37
2018-08-31T13:38:27.314Z,3.00
2018-08-31T13:40:54.411Z,3.43
2018-08-31T13:43:21.607Z,4.40
2018-08-31T13:45:48.772Z,3.10
2018-08-31T13:48:15.871Z,4.57
2018-08-31T13:50:43.024Z,4.63
2018-08-31T13:53:10.147Z,5.20
2018-08-31T13:55:37.270Z,1.97
2018-08-31T13:58:04.367Z,2.67
2018-08-31T14:00:31.484Z,3.77
2018-08-31T14:02:58.623Z,4.17
2018-08-31T14:05:25.784Z,3.27
2018-08-31T14:07:52.896Z,2.97
2018-08-31T14:10:20.065Z,2.70
2018-08-31T14:12:47.300Z,3.40
2018-08-31T14:15:14.307Z,4.10
2018-08-31T14:17:41.417Z,3.20
2018-08-31T14:20:08.541Z,3.63
2018-08-31T14:22:35.648Z,5.13
2018-08-31T14:25:02.785Z,2.47
2018-08-31T14:27:29.892Z,5.87
2018-08-31T14:29:57.178Z,4.13
2018-08-31T14:32:24.184Z,2.53
2018-08-31T14:34:51.324Z,2.10
2018-08-31T14:37:18.452Z,2.77
2018-08-31T14:39:45.554Z,3.27
2018-08-31T14:42:12.666Z,3.73
2018-08-31T14:44:39.763Z,3.57
2018-08-31T14:47:06.909Z,3.37
2018-08-31T14:49:34.139Z,2.90
2018-08-31T14:52:01.182Z,2.53
2018-08-31T14:54:28.300Z,2.23
2018-08-31T14:56:55.429Z,2.87
2018-08-31T14:59:22.589Z,2.63
2018-08-31T15:01:49.704Z,4.03
2018-08-31T15:04:16.812Z,5.57
2018-08-31T15:06:43.916Z,3.57
2018-08-31T15:09:11.049Z,3.20
2018-08-31T15:11:38.208Z,5.30
2018-08-31T15:14:05.329Z,2.63
2018-08-31T15:16:32.461Z,2.97
2018-08-31T15:18:59.577Z,2.93
2018-08-31T15:21:26.709Z,3.33
2018-08-31T15:23:53.826Z,3.13
2018-08-31T15:26:20.932Z,4.87
2018-08-31T15:28:48.094Z,4.07
2018-08-31T15:31:15.270Z,1.83
2018-08-31T15:33:42.402Z,3.20
2018-08-31T15:36:09.568Z,3.17
2018-08-31T15:38:36.702Z,3.70
2018-08-31T15:41:03.867Z,5.90
2018-08-31T15:43:31.012Z,3.83
2018-08-31T15:45:58.128Z,4.47
2018-08-31T15:48:25.233Z,4.50
2018-08-31T15:50:52.381Z,4.90
2018-08-31T15:53:19.472Z,3.37
2018-08-31T15:55:46.571Z,4.07
2018-08-31T15:58:13.761Z,4.60
2018-08-31T16:00:41.011Z,3.47
2018-08-31T16:03:08.123Z,4.93
2018-08-31T16:05:35.248Z,4.73
2018-08-31T16:08:02.391Z,4.60
2018-08-31T16:10:29.535Z,4.43
2018-08-31T16:12:56.632Z,5.17
2018-08-31T16:15:23.761Z,3.23
2018-08-31T16:17:50.844Z,2.77
2018-08-31T16:20:17.956Z,5.23
2018-08-31T16:22:45.104Z,5.73
2018-08-31T16:25:12.254Z,3.40
2018-08-31T16:27:39.736Z,5.67
2018-08-31T16:30:06.883Z,5.90
2018-08-31T16:32:33.997Z,3.93
2018-08-31T16:35:01.096Z,5.27
2018-08-31T16:37:28.204Z,4.50
2018-08-31T16:39:55.314Z,5.30
2018-08-31T16:42:22.456Z,5.17
2018-08-31T16:44:49.603Z,4.23
2018-08-31T16:47:16.803Z,6.10
2018-08-31T16:49:43.885Z,4.13
2018-08-31T16:52:11.024Z,4.87
2018-08-31T16:54:38.152Z,3.97
2018-08-31T16:57:05.433Z,3.80
2018-08-31T16:59:32.556Z,6.30
2018-08-31T17:01:59.689Z,4.53
2018-08-31T17:04:26.828Z,5.17
2018-08-31T17:06:53.950Z,4.80
2018-08-31T17:09:21.068Z,4.70
2018-08-31T17:11:48.199Z,4.93
2018-08-31T17:14:15.330Z,4.53
2018-08-31T17:16:42.474Z,3.70
2018-08-31T17:19:09.544Z,4.17
2018-08-31T17:21:36.696Z,2.47
2018-08-31T17:24:03.820Z,5.40
2018-08-31T17:28:39.920Z,5.03
2018-08-31T17:31:12.608Z,4.10
2018-08-31T17:33:45.510Z,3.95
2018-08-31T17:36:18.368Z,4.63
2018-08-31T17:38:45.528Z,4.03
2018-08-31T17:41:12.642Z,2.20
2018-08-31T17:43:39.823Z,5.57
2018-08-31T17:46:06.946Z,5.57
2018-08-31T17:48:34.059Z,6.33
2018-08-31T17:51:01.171Z,6.00
2018-08-31T17:53:28.392Z,6.90
2018-08-31T17:55:55.494Z,5.27
2018-08-31T17:58:22.617Z,7.17
2018-08-31T18:00:49.752Z,3.70
2018-08-31T18:03:16.892Z,4.23
2018-08-31T18:05:44.032Z,5.37
2018-08-31T18:08:11.123Z,3.23
2018-08-31T18:10:38.264Z,4.70
2018-08-31T18:13:05.495Z,4.17
2018-08-31T18:15:32.698Z,4.33
2018-08-31T18:17:59.822Z,3.13
2018-08-31T18:20:26.970Z,4.43
2018-08-31T18:22:54.130Z,3.33
2018-08-31T18:25:21.228Z,4.03
2018-08-31T18:27:48.343Z,4.30
2018-08-31T18:30:16.804Z,4.83
2018-08-31T18:32:43.920Z,3.77
2018-08-31T18:35:11.099Z,4.17
2018-08-31T18:37:38.214Z,4.87
2018-08-31T18:40:05.458Z,4.83
2018-08-31T18:42:32.514Z,2.87
2018-08-31T18:44:59.617Z,4.97
2018-08-31T18:47:26.752Z,7.03
2018-08-31T18:49:53.894Z,5.60
2018-08-31T18:52:21.089Z,6.23
2018-08-31T18:54:48.165Z,4.40
2018-08-31T18:57:15.279Z,3.50
2018-08-31T18:59:42.356Z,4.40
2018-08-31T19:02:09.464Z,3.03
2018-08-31T19:04:36.576Z,4.43
2018-08-31T19:09:43.647Z,5.93
2018-08-31T19:12:10.764Z,4.10
2018-08-31T19:14:37.868Z,5.67
2018-08-31T19:17:04.988Z,3.53
2018-08-31T19:19:32.216Z,4.20
2018-08-31T19:21:59.545Z,5.77
2018-08-31T19:24:26.656Z,4.30
2018-08-31T19:26:55.895Z,4.50
2018-08-31T19:29:23.424Z,5.87
2018-08-31T19:31:50.533Z,3.07
2018-08-31T19:34:17.660Z,2.43
2018-08-31T19:36:44.848Z,2.63
2018-08-31T19:39:12.012Z,3.17
2018-08-31T19:41:39.225Z,6.23
2018-08-31T19:44:06.343Z,4.33
2018-08-31T19:46:33.507Z,5.77
2018-08-31T19:49:00.705Z,5.67
2018-08-31T19:51:27.847Z,3.83
2018-08-31T19:53:55.025Z,5.07
2018-08-31T19:56:22.104Z,4.40
2018-08-31T19:58:49.221Z,4.87
2018-08-31T20:01:16.351Z,4.33
2018-08-31T20:03:43.464Z,4.53
2018-08-31T20:06:10.610Z,3.83
2018-08-31T20:08:37.710Z,4.70
2018-08-31T20:11:04.822Z,5.03
2018-08-31T20:13:32.001Z,7.40
2018-08-31T20:15:59.072Z,5.10
2018-08-31T20:18:26.185Z,4.27
2018-08-31T20:20:53.297Z,3.43
2018-08-31T20:23:20.406Z,5.47
2018-08-31T20:25:47.496Z,4.47
2018-08-31T20:28:14.606Z,3.00
2018-08-31T20:30:41.739Z,3.37
2018-08-31T20:33:08.849Z,3.57
2018-08-31T20:35:35.949Z,5.10
2018-08-31T20:38:03.073Z,4.60
2018-08-31T20:40:30.219Z,5.60
2018-08-31T20:42:57.339Z,6.17
2018-08-31T20:45:24.448Z,3.40
2018-08-31T20:47:51.556Z,5.97
2018-08-31T20:50:18.680Z,4.23
2018-08-31T20:52:45.788Z,4.37
2018-08-31T20:55:12.901Z,5.23
2018-08-31T20:57:40.018Z,4.60
2018-08-31T21:00:07.148Z,6.30
2018-08-31T21:02:34.282Z,5.93
2018-08-31T21:05:01.390Z,4.73
2018-08-31T21:07:28.514Z,4.30
2018-08-31T21:09:55.627Z,4.60
2018-08-31T21:12:22.772Z,4.60
2018-08-31T21:14:49.883Z,6.27
2018-08-31T21:17:17.052Z,5.13
2018-08-31T21:19:44.172Z,3.40
2018-08-31T21:22:11.279Z,3.70
2018-08-31T21:24:38.388Z,8.03
2018-08-31T21:27:05.803Z,4.80
2018-08-31T21:29:32.916Z,7.03
2018-08-31T21:32:00.059Z,5.10
2018-08-31T21:34:27.156Z,3.90
2018-08-31T21:36:54.329Z,5.80
2018-08-31T21:39:21.455Z,3.97
2018-08-31T21:41:48.589Z,5.57
2018-08-31T21:44:15.701Z,4.67
2018-08-31T21:46:42.809Z,3.40
2018-08-31T21:49:09.929Z,4.17
2018-08-31T21:51:37.083Z,4.17
2018-08-31T21:54:04.196Z,4.97
2018-08-31T21:56:31.304Z,6.07
2018-08-31T21:58:58.410Z,4.23
2018-08-31T22:01:31.283Z,4.90
2018-08-31T22:03:58.413Z,4.50
2018-08-31T22:06:25.526Z,4.17
2018-08-31T22:08:52.657Z,5.00
2018-08-31T22:11:19.752Z,5.43
2018-08-31T22:13:46.854Z,6.00
2018-08-31T22:16:13.969Z,5.90
2018-08-31T22:23:34.339Z,7.00
2018-08-31T22:26:01.506Z,13.83
2018-08-31T22:28:28.620Z,10.50
2018-08-31T22:30:55.720Z,6.73
2018-08-31T22:33:22.836Z,6.10
2018-08-31T22:35:49.956Z,7.20
2018-08-31T22:38:17.048Z,7.60
2018-08-31T22:40:44.155Z,4.60
2018-08-31T22:43:11.249Z,5.53
2018-08-31T22:45:38.377Z,6.77
2018-08-31T22:48:05.484Z,4.77
2018-08-31T22:50:32.600Z,6.03
2018-08-31T22:52:59.704Z,6.10
2018-08-31T22:55:26.817Z,8.00
2018-08-31T22:57:53.942Z,7.30
2018-08-31T23:00:21.064Z,6.70
2018-08-31T23:02:48.175Z,4.13
2018-08-31T23:05:15.268Z,4.20
2018-08-31T23:07:48.052Z,8.83
2018-08-31T23:10:15.152Z,5.80
2018-08-31T23:12:42.325Z,7.17
2018-08-31T23:15:09.384Z,5.93
2018-08-31T23:17:36.486Z,5.50
2018-08-31T23:20:03.636Z,6.03
2018-08-31T23:22:30.736Z,5.77
2018-08-31T23:24:59.199Z,7.20
2018-08-31T23:27:26.872Z,5.47
2018-08-31T23:29:54.315Z,4.90
2018-08-31T23:32:21.441Z,5.87
2018-08-31T23:34:48.581Z,7.10
2018-08-31T23:37:15.705Z,4.00
2018-08-31T23:39:42.844Z,5.30
2018-08-31T23:42:09.961Z,10.07
2018-08-31T23:44:37.073Z,6.70
2018-08-31T23:47:04.195Z,7.33
2018-08-31T23:49:31.285Z,8.07
2018-08-31T23:51:58.404Z,6.10
2018-08-31T23:54:25.517Z,5.90
2018-08-31T23:56:52.657Z,7.50
2018-08-31T23:59:19.794Z,5.33
